sensor_id;sensor_type;location;lat;lon;timestamp;pressure;altitude;pressure_sealevel;temperature;humidity
70684;BME280;58263;48.146;11.440;2022-09-09T00:02:24;95470.03;;;17.44;66.58
70684;BME280;58263;48.146;11.440;2022-09-09T00:05:00;95464.34;;;17.45;66.73
70684;BME280;58263;48.146;11.440;2022-09-09T00:10:22;95465.13;;;17.51;66.91
70684;BME280;58263;48.146;11.440;2022-09-09T00:15:23;95451.88;;;17.44;66.45
70684;BME280;58263;48.146;11.440;2022-09-09T00:18:05;95454.88;;;17.43;66.46
70684;BME280;58263;48.146;11.440;2022-09-09T00:20:42;95455.16;;;17.41;66.23
70684;BME280;58263;48.146;11.440;2022-09-09T00:23:30;95456.25;;;17.40;66.14
70684;BME280;58263;48.146;11.440;2022-09-09T00:26:14;95459.47;;;17.42;66.27
70684;BME280;58263;48.146;11.440;2022-09-09T00:28:48;95459.47;;;17.42;66.38
70684;BME280;58263;48.146;11.440;2022-09-09T00:31:23;95458.69;;;17.42;66.38
70684;BME280;58263;48.146;11.440;2022-09-09T00:33:50;95448.13;;;17.40;66.57
70684;BME280;58263;48.146;11.440;2022-09-09T00:36:22;95450.53;;;17.42;66.56
70684;BME280;58263;48.146;11.440;2022-09-09T00:39:15;95456.75;;;17.42;66.28
70684;BME280;58263;48.146;11.440;2022-09-09T00:44:32;95461.66;;;17.40;66.38
70684;BME280;58263;48.146;11.440;2022-09-09T00:50:00;95447.09;;;17.31;66.95
70684;BME280;58263;48.146;11.440;2022-09-09T00:52:47;95453.06;;;17.28;66.84
70684;BME280;58263;48.146;11.440;2022-09-09T00:55:19;95451.44;;;17.27;66.84
70684;BME280;58263;48.146;11.440;2022-09-09T00:57:51;95457.66;;;17.27;66.72
70684;BME280;58263;48.146;11.440;2022-09-09T01:00:24;95447.38;;;17.24;66.67
70684;BME280;58263;48.146;11.440;2022-09-09T01:03:25;95452.28;;;17.22;66.86
70684;BME280;58263;48.146;11.440;2022-09-09T01:06:11;95455.81;;;17.22;66.99
70684;BME280;58263;48.146;11.440;2022-09-09T01:09:04;95462.59;;;17.20;67.22
70684;BME280;58263;48.146;11.440;2022-09-09T01:11:52;95465.31;;;17.20;67.25
70684;BME280;58263;48.146;11.440;2022-09-09T01:17:32;95455.31;;;17.15;67.66
70684;BME280;58263;48.146;11.440;2022-09-09T01:20:08;95460.19;;;17.13;67.14
70684;BME280;58263;48.146;11.440;2022-09-09T01:28:25;95451.53;;;17.11;67.50
70684;BME280;58263;48.146;11.440;2022-09-09T01:30:52;95453.69;;;17.09;67.60
70684;BME280;58263;48.146;11.440;2022-09-09T01:33:18;95451.28;;;17.08;67.53
70684;BME280;58263;48.146;11.440;2022-09-09T01:38:16;95448.56;;;17.08;67.39
70684;BME280;58263;48.146;11.440;2022-09-09T01:40:42;95456.41;;;17.09;67.17
70684;BME280;58263;48.146;11.440;2022-09-09T01:43:08;95455.06;;;17.06;67.03
70684;BME280;58263;48.146;11.440;2022-09-09T01:45:34;95453.69;;;17.09;67.04
70684;BME280;58263;48.146;11.440;2022-09-09T01:48:00;95456.41;;;17.09;67.29
70684;BME280;58263;48.146;11.440;2022-09-09T01:50:27;95446.13;;;17.06;66.93
70684;BME280;58263;48.146;11.440;2022-09-09T01:52:56;95451.00;;;17.04;66.97
70684;BME280;58263;48.146;11.440;2022-09-09T01:55:30;95457.25;;;17.04;67.01
70684;BME280;58263;48.146;11.440;2022-09-09T02:00:23;95457.56;;;16.98;67.24
70684;BME280;58263;48.146;11.440;2022-09-09T02:03:14;95457.03;;;16.90;67.46
70684;BME280;58263;48.146;11.440;2022-09-09T02:06:25;95449.19;;;16.84;67.32
70684;BME280;58263;48.146;11.440;2022-09-09T02:08:54;95447.28;;;16.84;67.43
70684;BME280;58263;48.146;11.440;2022-09-09T02:11:23;95434.31;;;16.81;67.69
70684;BME280;58263;48.146;11.440;2022-09-09T02:13:54;95437.56;;;16.78;67.57
70684;BME280;58263;48.146;11.440;2022-09-09T02:16:26;95434.84;;;16.78;67.69
70684;BME280;58263;48.146;11.440;2022-09-09T02:19:14;95435.69;;;16.79;67.83
70684;BME280;58263;48.146;11.440;2022-09-09T02:21:43;95437.84;;;16.77;67.71
70684;BME280;58263;48.146;11.440;2022-09-09T02:24:10;95446.81;;;16.72;67.62
70684;BME280;58263;48.146;11.440;2022-09-09T02:26:40;95441.66;;;16.70;68.03
70684;BME280;58263;48.146;11.440;2022-09-09T02:29:28;95439.50;;;16.67;67.94
70684;BME280;58263;48.146;11.440;2022-09-09T02:31:59;95436.81;;;16.62;68.33
70684;BME280;58263;48.146;11.440;2022-09-09T02:34:30;95448.75;;;16.61;68.25
70684;BME280;58263;48.146;11.440;2022-09-09T02:36:57;95442.53;;;16.61;68.50
70684;BME280;58263;48.146;11.440;2022-09-09T02:39:23;95432.78;;;16.60;68.21
70684;BME280;58263;48.146;11.440;2022-09-09T02:41:48;95439.53;;;16.62;68.53
70684;BME280;58263;48.146;11.440;2022-09-09T02:44:16;95438.69;;;16.62;68.74
70684;BME280;58263;48.146;11.440;2022-09-09T02:53:16;95429.19;;;16.75;68.35
70684;BME280;58263;48.146;11.440;2022-09-09T02:55:46;95435.41;;;16.70;67.80
70684;BME280;58263;48.146;11.440;2022-09-09T02:58:15;95434.31;;;16.76;67.74
70684;BME280;58263;48.146;11.440;2022-09-09T03:00:48;95434.84;;;16.78;67.93
70684;BME280;58263;48.146;11.440;2022-09-09T03:03:15;95437.88;;;16.71;68.38
70684;BME280;58263;48.146;11.440;2022-09-09T03:05:42;95433.00;;;16.68;68.15
70684;BME280;58263;48.146;11.440;2022-09-09T03:08:08;95431.13;;;16.64;68.15
70684;BME280;58263;48.146;11.440;2022-09-09T03:10:34;95427.88;;;16.62;68.04
70684;BME280;58263;48.146;11.440;2022-09-09T03:13:00;95426.28;;;16.55;68.14
70684;BME280;58263;48.146;11.440;2022-09-09T03:15:26;95434.63;;;16.64;68.37
70684;BME280;58263;48.146;11.440;2022-09-09T03:17:56;95427.28;;;16.70;68.11
70684;BME280;58263;48.146;11.440;2022-09-09T03:20:26;95433.28;;;16.67;67.86
70684;BME280;58263;48.146;11.440;2022-09-09T03:22:55;95437.59;;;16.68;67.91
70684;BME280;58263;48.146;11.440;2022-09-09T03:25:21;95423.78;;;16.75;67.87
70684;BME280;58263;48.146;11.440;2022-09-09T03:27:51;95424.84;;;16.79;67.66
70684;BME280;58263;48.146;11.440;2022-09-09T03:30:22;95418.88;;;16.77;67.73
70684;BME280;58263;48.146;11.440;2022-09-09T03:32:47;95423.50;;;16.71;67.86
70684;BME280;58263;48.146;11.440;2022-09-09T03:35:13;95423.22;;;16.78;67.98
70684;BME280;58263;48.146;11.440;2022-09-09T03:37:39;95420.78;;;16.76;67.65
70684;BME280;58263;48.146;11.440;2022-09-09T03:40:04;95416.72;;;16.73;67.50
70684;BME280;58263;48.146;11.440;2022-09-09T03:42:30;95422.44;;;16.72;67.38
70684;BME280;58263;48.146;11.440;2022-09-09T03:44:56;95420.78;;;16.76;67.81
70684;BME280;58263;48.146;11.440;2022-09-09T03:47:23;95421.59;;;16.77;68.30
70684;BME280;58263;48.146;11.440;2022-09-09T03:49:48;95429.44;;;16.78;67.55
70684;BME280;58263;48.146;11.440;2022-09-09T03:52:14;95427.28;;;16.70;67.71
70684;BME280;58263;48.146;11.440;2022-09-09T03:54:40;95418.09;;;16.66;67.91
70684;BME280;58263;48.146;11.440;2022-09-09T03:57:06;95428.16;;;16.60;67.87
70684;BME280;58263;48.146;11.440;2022-09-09T03:59:31;95425.44;;;16.60;68.36
70684;BME280;58263;48.146;11.440;2022-09-09T04:01:56;95416.53;;;16.54;68.06
70684;BME280;58263;48.146;11.440;2022-09-09T04:04:24;95412.97;;;16.64;68.31
70684;BME280;58263;48.146;11.440;2022-09-09T04:06:49;95413.81;;;16.60;67.86
70684;BME280;58263;48.146;11.440;2022-09-09T04:09:15;95420.31;;;16.59;68.63
70684;BME280;58263;48.146;11.440;2022-09-09T04:11:41;95418.94;;;16.61;68.20
70684;BME280;58263;48.146;11.440;2022-09-09T04:14:06;95412.16;;;16.64;68.49
70684;BME280;58263;48.146;11.440;2022-09-09T04:16:32;95413.81;;;16.65;68.26
70684;BME280;58263;48.146;11.440;2022-09-09T04:18:58;95405.69;;;16.60;68.28
70684;BME280;58263;48.146;11.440;2022-09-09T04:21:25;95402.44;;;16.58;68.51
70684;BME280;58263;48.146;11.440;2022-09-09T04:23:50;95413.25;;;16.58;68.09
70684;BME280;58263;48.146;11.440;2022-09-09T04:26:17;95407.84;;;16.58;68.44
70684;BME280;58263;48.146;11.440;2022-09-09T04:28:42;95406.25;;;16.56;68.40
70684;BME280;58263;48.146;11.440;2022-09-09T04:31:16;95397.84;;;16.58;68.24
70684;BME280;58263;48.146;11.440;2022-09-09T04:33:43;95392.72;;;16.56;68.63
70684;BME280;58263;48.146;11.440;2022-09-09T04:36:08;95387.00;;;16.58;68.96
70684;BME280;58263;48.146;11.440;2022-09-09T04:38:33;95383.53;;;16.52;68.87
70684;BME280;58263;48.146;11.440;2022-09-09T04:40:58;95385.19;;;16.43;68.80
70684;BME280;58263;48.146;11.440;2022-09-09T04:43:24;95393.88;;;16.35;68.88
70684;BME280;58263;48.146;11.440;2022-09-09T04:45:52;95403.34;;;16.27;69.32
70684;BME280;58263;48.146;11.440;2022-09-09T04:48:19;95400.13;;;16.20;69.41
70684;BME280;58263;48.146;11.440;2022-09-09T04:53:25;95392.28;;;16.18;70.05
70684;BME280;58263;48.146;11.440;2022-09-09T04:55:51;95394.44;;;16.16;69.64
70684;BME280;58263;48.146;11.440;2022-09-09T04:58:17;95398.28;;;16.10;69.68
70684;BME280;58263;48.146;11.440;2022-09-09T05:00:42;95391.50;;;16.02;70.24
70684;BME280;58263;48.146;11.440;2022-09-09T05:03:08;95399.63;;;15.97;70.12
70684;BME280;58263;48.146;11.440;2022-09-09T05:05:34;95399.34;;;15.94;70.55
70684;BME280;58263;48.146;11.440;2022-09-09T05:08:06;95394.50;;;15.91;70.52
70684;BME280;58263;48.146;11.440;2022-09-09T05:10:33;95396.41;;;15.90;70.80
70684;BME280;58263;48.146;11.440;2022-09-09T05:12:58;95395.06;;;15.87;70.16
70684;BME280;58263;48.146;11.440;2022-09-09T05:15:23;95398.31;;;15.84;70.86
70684;BME280;58263;48.146;11.440;2022-09-09T05:17:49;95409.41;;;15.83;70.52
70684;BME280;58263;48.146;11.440;2022-09-09T05:20:14;95403.97;;;15.78;70.78
70684;BME280;58263;48.146;11.440;2022-09-09T05:22:39;95406.94;;;15.81;71.09
70684;BME280;58263;48.146;11.440;2022-09-09T05:25:05;95409.94;;;15.80;71.31
70684;BME280;58263;48.146;11.440;2022-09-09T05:27:33;95409.38;;;15.78;71.24
70684;BME280;58263;48.146;11.440;2022-09-09T05:29:59;95414.50;;;15.89;71.75
70684;BME280;58263;48.146;11.440;2022-09-09T05:32:24;95415.34;;;15.90;71.02
70684;BME280;58263;48.146;11.440;2022-09-09T05:34:50;95415.06;;;15.86;71.37
70684;BME280;58263;48.146;11.440;2022-09-09T05:37:15;95423.19;;;15.86;71.87
70684;BME280;58263;48.146;11.440;2022-09-09T05:39:41;95416.13;;;16.01;71.19
70684;BME280;58263;48.146;11.440;2022-09-09T05:42:07;95418.56;;;16.02;71.69
70684;BME280;58263;48.146;11.440;2022-09-09T05:44:32;95417.22;;;16.05;71.43
70684;BME280;58263;48.146;11.440;2022-09-09T05:46:57;95415.88;;;16.08;71.86
70684;BME280;58263;48.146;11.440;2022-09-09T05:49:23;95423.94;;;16.13;71.14
70684;BME280;58263;48.146;11.440;2022-09-09T05:51:48;95419.91;;;16.10;71.13
70684;BME280;58263;48.146;11.440;2022-09-09T05:54:15;95421.00;;;16.14;71.12
70684;BME280;58263;48.146;11.440;2022-09-09T05:56:41;95420.94;;;16.25;70.17
70684;BME280;58263;48.146;11.440;2022-09-09T05:59:07;95420.94;;;16.25;70.45
70684;BME280;58263;48.146;11.440;2022-09-09T06:01:34;95429.56;;;16.37;69.45
70684;BME280;58263;48.146;11.440;2022-09-09T06:04:00;95419.03;;;16.41;69.79
70684;BME280;58263;48.146;11.440;2022-09-09T06:06:30;95428.19;;;16.50;69.41
70684;BME280;58263;48.146;11.440;2022-09-09T06:08:56;95434.44;;;16.45;69.26
70684;BME280;58263;48.146;11.440;2022-09-09T06:11:30;95441.97;;;16.53;69.05
70684;BME280;58263;48.146;11.440;2022-09-09T06:14:01;95433.56;;;16.60;68.50
70684;BME280;58263;48.146;11.440;2022-09-09T06:16:28;95429.50;;;16.63;68.04
70684;BME280;58263;48.146;11.440;2022-09-09T06:18:55;95434.63;;;16.64;68.39
70684;BME280;58263;48.146;11.440;2022-09-09T06:21:43;95427.59;;;16.63;67.91
70684;BME280;58263;48.146;11.440;2022-09-09T06:24:09;95417.81;;;16.67;68.29
70684;BME280;58263;48.146;11.440;2022-09-09T06:26:37;95425.13;;;16.72;68.15
70684;BME280;58263;48.146;11.440;2022-09-09T06:29:06;95420.78;;;16.71;67.97
70684;BME280;58263;48.146;11.440;2022-09-09T06:31:33;95423.22;;;16.78;68.38
70684;BME280;58263;48.146;11.440;2022-09-09T06:34:05;95420.75;;;16.81;68.45
70684;BME280;58263;48.146;11.440;2022-09-09T06:36:32;95425.06;;;16.87;67.72
70684;BME280;58263;48.146;11.440;2022-09-09T06:38:58;95425.88;;;16.93;67.88
70684;BME280;58263;48.146;11.440;2022-09-09T06:41:26;95430.47;;;16.93;67.44
70684;BME280;58263;48.146;11.440;2022-09-09T06:43:52;95428.81;;;17.02;67.56
70684;BME280;58263;48.146;11.440;2022-09-09T06:46:19;95430.44;;;17.03;67.53
70684;BME280;58263;48.146;11.440;2022-09-09T06:48:46;95440.16;;;17.09;67.63
70684;BME280;58263;48.146;11.440;2022-09-09T06:51:12;95438.78;;;17.12;67.33
70684;BME280;58263;48.146;11.440;2022-09-09T06:53:39;95450.44;;;17.12;67.77
70684;BME280;58263;48.146;11.440;2022-09-09T06:58:40;95455.81;;;17.22;67.39
70684;BME280;58263;48.146;11.440;2022-09-09T07:01:13;95455.25;;;17.26;67.50
70684;BME280;58263;48.146;11.440;2022-09-09T07:03:39;95467.97;;;17.30;67.75
70684;BME280;58263;48.146;11.440;2022-09-09T07:06:06;95501.28;;;17.36;67.68
70684;BME280;58263;48.146;11.440;2022-09-09T07:08:32;95499.94;;;17.33;67.68
70684;BME280;58263;48.146;11.440;2022-09-09T07:11:06;95479.63;;;17.31;68.60
70684;BME280;58263;48.146;11.440;2022-09-09T07:13:32;95492.00;;;17.47;67.19
70684;BME280;58263;48.146;11.440;2022-09-09T07:18:30;95487.78;;;17.65;66.94
70684;BME280;58263;48.146;11.440;2022-09-09T07:20:56;95495.88;;;17.76;66.92
70684;BME280;58263;48.146;11.440;2022-09-09T07:23:22;95501.78;;;17.83;67.22
70684;BME280;58263;48.146;11.440;2022-09-09T07:25:47;95502.25;;;17.90;67.51
70684;BME280;58263;48.146;11.440;2022-09-09T07:28:13;95497.56;;;18.06;67.04
70684;BME280;58263;48.146;11.440;2022-09-09T07:30:39;95495.88;;;18.15;67.03
70684;BME280;58263;48.146;11.440;2022-09-09T07:33:05;95493.63;;;18.22;67.27
70684;BME280;58263;48.146;11.440;2022-09-09T07:35:31;95492.19;;;18.30;67.34
70684;BME280;58263;48.146;11.440;2022-09-09T07:37:56;95492.97;;;18.36;67.47
70684;BME280;58263;48.146;11.440;2022-09-09T07:40:23;95500.31;;;18.35;67.61
70684;BME280;58263;48.146;11.440;2022-09-09T07:42:49;95503.25;;;18.39;67.83
70684;BME280;58263;48.146;11.440;2022-09-09T07:45:14;95514.59;;;18.46;67.16
70684;BME280;58263;48.146;11.440;2022-09-09T07:47:40;95505.81;;;18.54;67.14
70684;BME280;58263;48.146;11.440;2022-09-09T07:50:08;95507.56;;;18.69;66.74
70684;BME280;58263;48.146;11.440;2022-09-09T07:52:34;95508.28;;;18.80;65.99
70684;BME280;58263;48.146;11.440;2022-09-09T07:54:59;95513.09;;;18.88;65.90
70684;BME280;58263;48.146;11.440;2022-09-09T07:57:27;95514.91;;;18.98;65.81
70684;BME280;58263;48.146;11.440;2022-09-09T07:59:52;95516.38;;;19.09;65.68
70684;BME280;58263;48.146;11.440;2022-09-09T08:02:17;95514.41;;;19.15;65.22
70684;BME280;58263;48.146;11.440;2022-09-09T08:04:43;95521.91;;;19.23;64.23
70684;BME280;58263;48.146;11.440;2022-09-09T08:07:08;95519.72;;;19.25;63.62
70684;BME280;58263;48.146;11.440;2022-09-09T08:09:33;95518.53;;;19.32;63.52
70684;BME280;58263;48.146;11.440;2022-09-09T08:11:59;95529.44;;;19.32;63.32
70684;BME280;58263;48.146;11.440;2022-09-09T08:14:26;95530.25;;;19.32;63.41
70684;BME280;58263;48.146;11.440;2022-09-09T08:16:51;95532.97;;;19.32;63.59
70684;BME280;58263;48.146;11.440;2022-09-09T08:19:18;95528.88;;;19.35;63.48
70684;BME280;58263;48.146;11.440;2022-09-09T08:21:44;95542.47;;;19.35;63.12
70684;BME280;58263;48.146;11.440;2022-09-09T08:24:11;95551.19;;;19.32;63.68
70684;BME280;58263;48.146;11.440;2022-09-09T08:26:39;95546.88;;;19.31;64.59
70684;BME280;58263;48.146;11.440;2022-09-09T08:29:07;95545.53;;;19.28;65.26
70684;BME280;58263;48.146;11.440;2022-09-09T08:31:38;95554.00;;;19.27;65.70
70684;BME280;58263;48.146;11.440;2022-09-09T08:34:05;95548.56;;;19.27;66.39
70684;BME280;58263;48.146;11.440;2022-09-09T08:36:36;95554.00;;;19.27;67.11
70684;BME280;58263;48.146;11.440;2022-09-09T08:39:04;95549.84;;;19.29;66.21
70684;BME280;58263;48.146;11.440;2022-09-09T08:55:27;95549.88;;;19.91;63.88
70684;BME280;58263;48.146;11.440;2022-09-09T08:57:56;95551.47;;;20.12;62.51
70684;BME280;58263;48.146;11.440;2022-09-09T09:00:22;95551.16;;;20.32;62.00
70684;BME280;58263;48.146;11.440;2022-09-09T09:03:09;95539.28;;;20.56;60.58
70684;BME280;58263;48.146;11.440;2022-09-09T09:11:16;95533.69;;;20.66;57.82
70684;BME280;58263;48.146;11.440;2022-09-09T09:18:51;95539.28;;;20.56;58.70
70684;BME280;58263;48.146;11.440;2022-09-09T09:21:37;95541.03;;;20.85;57.98
70684;BME280;58263;48.146;11.440;2022-09-09T09:24:09;95544.16;;;21.06;57.57
70684;BME280;58263;48.146;11.440;2022-09-09T09:26:46;95541.94;;;21.22;56.46
70684;BME280;58263;48.146;11.440;2022-09-09T09:29:17;95543.13;;;21.30;56.37
70684;BME280;58263;48.146;11.440;2022-09-09T09:31:53;95542.25;;;21.20;56.75
70684;BME280;58263;48.146;11.440;2022-09-09T09:34:20;95550.13;;;21.08;57.64
70684;BME280;58263;48.146;11.440;2022-09-09T09:39:28;95554.53;;;20.76;57.58
70684;BME280;58263;48.146;11.440;2022-09-09T09:41:54;95552.91;;;20.75;58.15
70684;BME280;58263;48.146;11.440;2022-09-09T09:44:31;95554.09;;;20.69;57.95
70684;BME280;58263;48.146;11.440;2022-09-09T09:47:17;95552.75;;;20.66;57.70
70684;BME280;58263;48.146;11.440;2022-09-09T09:49:54;95545.19;;;20.63;57.10
70684;BME280;58263;48.146;11.440;2022-09-09T09:52:23;95548.78;;;20.58;57.72
70684;BME280;58263;48.146;11.440;2022-09-09T09:54:49;95554.63;;;20.52;59.67
70684;BME280;58263;48.146;11.440;2022-09-09T09:57:16;95546.34;;;20.43;60.10
70684;BME280;58263;48.146;11.440;2022-09-09T09:59:43;95548.94;;;20.34;59.69
70684;BME280;58263;48.146;11.440;2022-09-09T10:02:21;95547.47;;;20.23;58.74
70684;BME280;58263;48.146;11.440;2022-09-09T10:05:13;95551.78;;;20.10;58.97
70684;BME280;58263;48.146;11.440;2022-09-09T10:07:39;95552.88;;;20.09;60.00
70684;BME280;58263;48.146;11.440;2022-09-09T10:10:07;95556.13;;;20.11;59.58
70684;BME280;58263;48.146;11.440;2022-09-09T10:12:51;95554.44;;;20.15;60.29
70684;BME280;58263;48.146;11.440;2022-09-09T10:20:45;95548.38;;;20.51;60.38
70684;BME280;58263;48.146;11.440;2022-09-09T10:29:13;95555.13;;;20.73;59.64
70684;BME280;58263;48.146;11.440;2022-09-09T10:31:45;95548.38;;;20.84;59.82
70684;BME280;58263;48.146;11.440;2022-09-09T10:37:14;95549.00;;;21.09;58.68
70684;BME280;58263;48.146;11.440;2022-09-09T10:39:48;95546.16;;;21.00;58.26
70684;BME280;58263;48.146;11.440;2022-09-09T10:42:20;95542.13;;;21.25;57.56
70684;BME280;58263;48.146;11.440;2022-09-09T10:48:08;95547.38;;;21.36;54.49
70684;BME280;58263;48.146;11.440;2022-09-09T10:50:49;95541.59;;;21.51;54.41
70684;BME280;58263;48.146;11.440;2022-09-09T10:56:09;95542.63;;;21.55;53.89
70684;BME280;58263;48.146;11.440;2022-09-09T10:58:42;95542.69;;;21.78;53.22
70684;BME280;58263;48.146;11.440;2022-09-09T11:01:41;95550.19;;;22.09;52.91
70684;BME280;58263;48.146;11.440;2022-09-09T11:04:17;95550.78;;;23.05;50.50
70684;BME280;58263;48.146;11.440;2022-09-09T11:06:50;95543.84;;;23.39;49.26
70684;BME280;58263;48.146;11.440;2022-09-09T11:09:22;95536.84;;;23.65;48.88
70684;BME280;58263;48.146;11.440;2022-09-09T11:11:54;95539.94;;;23.98;47.60
70684;BME280;58263;48.146;11.440;2022-09-09T11:17:08;95531.09;;;25.70;44.35
70684;BME280;58263;48.146;11.440;2022-09-09T11:22:14;95540.91;;;25.50;43.49
70684;BME280;58263;48.146;11.440;2022-09-09T11:24:45;95540.59;;;26.02;42.02
70684;BME280;58263;48.146;11.440;2022-09-09T11:27:17;95537.47;;;26.46;40.24
70684;BME280;58263;48.146;11.440;2022-09-09T11:30:05;95538.03;;;26.39;40.44
70684;BME280;58263;48.146;11.440;2022-09-09T11:40:34;95531.06;;;25.10;43.84
70684;BME280;58263;48.146;11.440;2022-09-09T11:43:24;95518.53;;;25.30;42.16
70684;BME280;58263;48.146;11.440;2022-09-09T11:45:53;95530.16;;;25.36;42.97
70684;BME280;58263;48.146;11.440;2022-09-09T11:51:02;95524.50;;;25.41;42.28
70684;BME280;58263;48.146;11.440;2022-09-09T11:53:31;95517.53;;;25.05;42.97
70684;BME280;58263;48.146;11.440;2022-09-09T11:56:09;95536.00;;;24.87;43.74
70684;BME280;58263;48.146;11.440;2022-09-09T11:58:38;95533.97;;;24.57;44.15
70684;BME280;58263;48.146;11.440;2022-09-09T12:01:37;95533.31;;;24.43;44.67
70684;BME280;58263;48.146;11.440;2022-09-09T12:06:56;95529.13;;;25.49;42.11
70684;BME280;58263;48.146;11.440;2022-09-09T12:15:00;95520.13;;;25.70;42.79
70684;BME280;58263;48.146;11.440;2022-09-09T12:17:27;95520.09;;;25.48;42.03
70684;BME280;58263;48.146;11.440;2022-09-09T12:28:18;95514.38;;;27.05;39.44
70684;BME280;58263;48.146;11.440;2022-09-09T12:31:09;95506.53;;;27.94;37.90
70684;BME280;58263;48.146;11.440;2022-09-09T12:33:39;95511.16;;;27.28;38.88
70684;BME280;58263;48.146;11.440;2022-09-09T12:36:12;95509.81;;;26.63;38.95
70684;BME280;58263;48.146;11.440;2022-09-09T12:38:40;95508.50;;;26.48;40.00
70684;BME280;58263;48.146;11.440;2022-09-09T12:41:19;95513.38;;;26.30;40.20
70684;BME280;58263;48.146;11.440;2022-09-09T12:43:45;95508.69;;;26.10;40.02
70684;BME280;58263;48.146;11.440;2022-09-09T12:46:21;95504.97;;;26.27;38.64
70684;BME280;58263;48.146;11.440;2022-09-09T12:48:51;95503.47;;;26.51;38.28
70684;BME280;58263;48.146;11.440;2022-09-09T12:51:25;95497.97;;;27.09;37.75
70684;BME280;58263;48.146;11.440;2022-09-09T12:53:51;95496.69;;;26.94;38.29
70684;BME280;58263;48.146;11.440;2022-09-09T12:56:22;95491.88;;;26.78;38.25
70684;BME280;58263;48.146;11.440;2022-09-09T12:58:50;95492.59;;;26.66;38.64
70684;BME280;58263;48.146;11.440;2022-09-09T13:01:25;95491.38;;;26.30;39.89
70684;BME280;58263;48.146;11.440;2022-09-09T13:03:51;95493.22;;;26.39;39.86
70684;BME280;58263;48.146;11.440;2022-09-09T13:06:28;95482.16;;;26.60;39.96
70684;BME280;58263;48.146;11.440;2022-09-09T13:08:57;95486.88;;;26.26;40.19
70684;BME280;58263;48.146;11.440;2022-09-09T13:11:35;95485.88;;;25.88;40.54
70684;BME280;58263;48.146;11.440;2022-09-09T13:14:03;95479.41;;;26.14;40.10
70684;BME280;58263;48.146;11.440;2022-09-09T13:16:31;95476.53;;;26.56;39.01
70684;BME280;58263;48.146;11.440;2022-09-09T13:19:07;95479.16;;;26.86;39.32
70684;BME280;58263;48.146;11.440;2022-09-09T13:21:34;95471.47;;;26.79;39.51
70684;BME280;58263;48.146;11.440;2022-09-09T13:23:59;95465.41;;;26.53;38.93
70684;BME280;58263;48.146;11.440;2022-09-09T13:26:28;95468.38;;;26.81;38.98
70684;BME280;58263;48.146;11.440;2022-09-09T13:28:55;95464.69;;;26.77;39.40
70684;BME280;58263;48.146;11.440;2022-09-09T13:31:36;95460.50;;;26.58;39.36
70684;BME280;58263;48.146;11.440;2022-09-09T13:34:29;95451.00;;;26.22;38.93
70684;BME280;58263;48.146;11.440;2022-09-09T13:37:24;95450.03;;;26.06;39.54
70684;BME280;58263;48.146;11.440;2022-09-09T13:39:53;95448.34;;;25.92;40.29
70684;BME280;58263;48.146;11.440;2022-09-09T13:42:25;95447.00;;;25.56;40.29
70684;BME280;58263;48.146;11.440;2022-09-09T13:44:51;95444.59;;;25.34;41.09
70684;BME280;58263;48.146;11.440;2022-09-09T13:47:32;95452.69;;;24.91;41.58
70684;BME280;58263;48.146;11.440;2022-09-09T13:50:30;95449.25;;;24.64;42.81
70684;BME280;58263;48.146;11.440;2022-09-09T13:52:57;95448.53;;;24.29;43.38
70684;BME280;58263;48.146;11.440;2022-09-09T13:55:29;95448.88;;;24.10;44.15
70684;BME280;58263;48.146;11.440;2022-09-09T13:57:59;95451.31;;;24.03;44.09
70684;BME280;58263;48.146;11.440;2022-09-09T14:00:25;95444.53;;;23.74;44.96
70684;BME280;58263;48.146;11.440;2022-09-09T14:02:52;95447.28;;;23.74;45.07
70684;BME280;58263;48.146;11.440;2022-09-09T14:05:18;95444.69;;;23.60;45.66
70684;BME280;58263;48.146;11.440;2022-09-09T14:07:44;95455.00;;;23.54;46.09
70684;BME280;58263;48.146;11.440;2022-09-09T14:10:11;95446.09;;;23.31;46.41
70684;BME280;58263;48.146;11.440;2022-09-09T14:12:37;95448.88;;;23.40;46.67
70684;BME280;58263;48.146;11.440;2022-09-09T14:15:04;95452.06;;;23.24;46.63
70684;BME280;58263;48.146;11.440;2022-09-09T14:17:30;95457.88;;;23.32;46.58
70684;BME280;58263;48.146;11.440;2022-09-09T14:19:57;95453.84;;;23.29;46.52
70684;BME280;58263;48.146;11.440;2022-09-09T14:22:22;95454.47;;;23.26;46.76
70684;BME280;58263;48.146;11.440;2022-09-09T14:24:48;95455.28;;;23.35;46.70
70684;BME280;58263;48.146;11.440;2022-09-09T14:27:14;95462.03;;;23.20;46.73
70684;BME280;58263;48.146;11.440;2022-09-09T14:29:40;95461.47;;;23.09;47.26
70684;BME280;58263;48.146;11.440;2022-09-09T14:32:05;95457.06;;;22.82;47.26
70684;BME280;58263;48.146;11.440;2022-09-09T14:34:30;95465.94;;;22.56;47.88
70684;BME280;58263;48.146;11.440;2022-09-09T14:36:57;95474.88;;;22.71;47.26
70684;BME280;58263;48.146;11.440;2022-09-09T14:39:23;95471.19;;;22.44;47.23
70684;BME280;58263;48.146;11.440;2022-09-09T14:41:48;95463.16;;;22.39;47.84
70684;BME280;58263;48.146;11.440;2022-09-09T14:44:13;95476.19;;;22.42;47.76
70684;BME280;58263;48.146;11.440;2022-09-09T14:46:38;95472.47;;;22.38;48.16
70684;BME280;58263;48.146;11.440;2022-09-09T14:49:04;95469.34;;;22.31;48.14
70684;BME280;58263;48.146;11.440;2022-09-09T14:51:29;95475.81;;;22.35;48.02
70684;BME280;58263;48.146;11.440;2022-09-09T14:53:57;95470.94;;;22.32;48.50
70684;BME280;58263;48.146;11.440;2022-09-09T14:56:26;95475.28;;;22.10;49.13
70684;BME280;58263;48.146;11.440;2022-09-09T14:58:55;95475.94;;;22.07;49.10
70684;BME280;58263;48.146;11.440;2022-09-09T15:01:21;95461.22;;;21.94;48.31
70684;BME280;58263;48.146;11.440;2022-09-09T15:03:52;95471.72;;;22.01;48.75
70684;BME280;58263;48.146;11.440;2022-09-09T15:06:19;95474.94;;;22.25;48.59